createdAt,value
2023-02-27T00:00:37.571Z,61.69
2023-02-27T00:03:30.012Z,62.81
2023-02-27T00:05:59.784Z,63.23
2023-02-27T00:08:31.443Z,61.76
2023-02-27T00:11:07.386Z,60.19
2023-02-27T00:14:02.111Z,58.54
2023-02-27T00:16:32.748Z,57.86
2023-02-27T00:19:13.746Z,58.84
2023-02-27T00:21:47.370Z,60.22
2023-02-27T00:24:28.261Z,61.25
2023-02-27T00:27:16.940Z,62.42
2023-02-27T00:30:01.325Z,63.27
2023-02-27T00:32:37.556Z,62.37
2023-02-27T00:35:11.107Z,60.77
2023-02-27T00:37:58.671Z,59.10
2023-02-27T00:40:31.610Z,57.89
2023-02-27T00:43:06.256Z,58.72
2023-02-27T00:45:43.088Z,59.47
2023-02-27T00:48:14.986Z,60.58
2023-02-27T00:50:44.640Z,61.55
2023-02-27T00:53:13.735Z,62.39
2023-02-27T00:55:48.118Z,63.74
2023-02-27T00:58:20.303Z,63.12
2023-02-27T01:00:52.171Z,61.71
2023-02-27T01:03:27.461Z,60.45
2023-02-27T01:05:59.588Z,59.07
2023-02-27T01:09:01.692Z,57.91
2023-02-27T01:11:36.721Z,58.96
2023-02-27T01:14:08.461Z,60.00
2023-02-27T01:16:44.013Z,60.91
2023-02-27T01:19:30.284Z,62.33
2023-02-27T01:22:03.469Z,63.41
2023-02-27T01:24:35.226Z,63.23
2023-02-27T01:27:17.897Z,62.12
2023-02-27T01:29:54.616Z,60.72
2023-02-27T01:32:47.976Z,59.48
2023-02-27T01:35:36.431Z,58.19
2023-02-27T01:39:06.599Z,59.15
2023-02-27T01:42:25.170Z,60.95
2023-02-27T01:45:51.669Z,62.72
2023-02-27T01:48:33.684Z,62.97
2023-02-27T01:51:59.624Z,61.90
2023-02-27T01:54:44.100Z,60.33
2023-02-27T01:57:17.886Z,58.73
2023-02-27T01:59:52.213Z,58.03
2023-02-27T02:02:31.747Z,59.10
2023-02-27T02:05:50.506Z,60.62
2023-02-27T02:08:28.675Z,62.37
2023-02-27T02:10:59.592Z,63.16
2023-02-27T02:13:55.437Z,61.88
2023-02-27T02:16:57.507Z,60.46
2023-02-27T02:20:01.399Z,59.27
2023-02-27T02:23:15.557Z,58.05
2023-02-27T02:26:33.608Z,59.30
2023-02-27T02:29:39.336Z,60.92
2023-02-27T02:32:34.275Z,62.33
2023-02-27T02:35:11.004Z,63.76
2023-02-27T02:38:05.813Z,63.44
2023-02-27T02:40:57.791Z,62.03
2023-02-27T02:43:55.801Z,60.67
2023-02-27T02:46:52.520Z,59.24
2023-02-27T02:49:37.205Z,58.16
2023-02-27T02:52:22.468Z,59.25
2023-02-27T02:55:23.878Z,60.46
2023-02-27T02:58:04.913Z,61.62
2023-02-27T03:00:43.482Z,62.69
2023-02-27T03:03:25.627Z,64.46
2023-02-27T03:06:24.304Z,64.03
2023-02-27T03:09:04.243Z,62.61
2023-02-27T03:11:39.343Z,61.03
2023-02-27T03:14:35.763Z,59.71
2023-02-27T03:17:16.575Z,58.44
2023-02-27T03:20:04.975Z,59.42
2023-02-27T03:22:49.993Z,60.98
2023-02-27T03:25:24.840Z,62.86
2023-02-27T03:28:25.073Z,64.24
2023-02-27T03:31:42.050Z,63.40
2023-02-27T03:34:20.087Z,62.06
2023-02-27T03:37:00.820Z,60.63
2023-02-27T03:39:50.601Z,59.51
2023-02-27T03:42:27.062Z,58.43
2023-02-27T03:45:25.239Z,59.75
2023-02-27T03:47:54.206Z,61.09
2023-02-27T03:50:23.569Z,62.66
2023-02-27T03:52:52.506Z,64.66
2023-02-27T03:55:29.513Z,64.20
2023-02-27T03:57:59.743Z,62.91
2023-02-27T04:00:31.602Z,61.68
2023-02-27T04:03:02.902Z,60.69
2023-02-27T04:05:33.580Z,59.73
2023-02-27T04:08:21.991Z,58.61
2023-02-27T04:11:21.426Z,59.62
2023-02-27T04:14:20.749Z,61.46
2023-02-27T04:17:13.622Z,62.70
2023-02-27T04:19:49.602Z,64.36
2023-02-27T04:22:37.033Z,63.89
2023-02-27T04:25:36.792Z,62.68
2023-02-27T04:28:24.454Z,61.38
2023-02-27T04:31:09.037Z,60.08
2023-02-27T04:33:49.208Z,58.67
2023-02-27T04:36:57.486Z,59.09
2023-02-27T04:39:52.423Z,60.95
2023-02-27T04:42:27.257Z,62.19
2023-02-27T04:45:01.088Z,64.38
2023-02-27T04:47:38.024Z,63.92
2023-02-27T04:50:20.047Z,62.51
2023-02-27T04:53:09.534Z,61.00
2023-02-27T04:55:52.185Z,59.74
2023-02-27T04:58:50.597Z,58.37
2023-02-27T05:01:26.942Z,59.53
2023-02-27T05:04:00.369Z,60.85
2023-02-27T05:06:35.816Z,62.42
2023-02-27T05:09:29.958Z,64.17
2023-02-27T05:12:13.154Z,63.54
2023-02-27T05:14:44.806Z,61.91
2023-02-27T05:17:22.268Z,60.38
2023-02-27T05:19:52.590Z,59.25
2023-02-27T05:22:39.966Z,58.31
2023-02-27T05:25:28.297Z,59.43
2023-02-27T05:28:26.775Z,60.99
2023-02-27T05:31:15.139Z,63.10
2023-02-27T05:34:01.456Z,64.21
2023-02-27T05:36:57.007Z,63.11
2023-02-27T05:39:32.552Z,61.73
2023-02-27T05:42:17.795Z,60.29
2023-02-27T05:44:54.623Z,58.77
2023-02-27T05:47:28.228Z,58.73
2023-02-27T05:50:08.332Z,60.16
2023-02-27T05:52:41.824Z,61.55
2023-02-27T05:55:28.313Z,62.71
2023-02-27T05:58:02.703Z,64.46
2023-02-27T06:00:41.819Z,63.53
2023-02-27T06:03:10.987Z,62.02
2023-02-27T06:05:46.627Z,60.66
2023-02-27T06:08:15.448Z,59.41
2023-02-27T06:10:44.283Z,58.21
2023-02-27T06:13:12.972Z,59.23
2023-02-27T06:15:41.737Z,60.55
2023-02-27T06:18:13.273Z,62.08
2023-02-27T06:20:44.070Z,63.79
2023-02-27T06:23:14.256Z,64.03
2023-02-27T06:25:43.339Z,62.71
2023-02-27T06:28:12.294Z,61.36
2023-02-27T06:30:44.726Z,60.05
2023-02-27T06:33:22.590Z,58.57
2023-02-27T06:35:51.554Z,58.90
2023-02-27T06:38:20.558Z,60.27
2023-02-27T06:40:49.245Z,61.56
2023-02-27T06:43:17.996Z,63.35
2023-02-27T06:45:47.810Z,64.22
2023-02-27T06:48:16.513Z,62.86
2023-02-27T06:50:45.976Z,61.24
2023-02-27T06:53:17.433Z,59.78
2023-02-27T06:55:46.316Z,58.28
2023-02-27T06:58:15.480Z,59.03
2023-02-27T07:00:45.242Z,60.52
2023-02-27T07:03:14.183Z,61.74
2023-02-27T07:05:45.692Z,62.57
2023-02-27T07:08:17.869Z,64.06
2023-02-27T07:10:49.098Z,63.14
2023-02-27T07:13:19.695Z,61.37
2023-02-27T07:15:52.757Z,59.64
2023-02-27T07:18:22.731Z,58.08
2023-02-27T07:20:52.617Z,58.84
2023-02-27T07:23:23.032Z,60.11
2023-02-27T07:25:52.637Z,61.00
2023-02-27T07:28:21.398Z,62.64
2023-02-27T07:30:50.229Z,63.93
2023-02-27T07:33:19.124Z,62.52
2023-02-27T07:35:48.735Z,60.70
2023-02-27T07:38:19.892Z,58.72
2023-02-27T07:40:56.506Z,57.89
2023-02-27T07:43:27.040Z,59.04
2023-02-27T07:45:58.891Z,60.57
2023-02-27T07:48:32.079Z,61.26
2023-02-27T07:51:02.570Z,62.43
2023-02-27T07:53:34.947Z,63.86
2023-02-27T07:56:03.967Z,62.38
2023-02-27T07:58:36.272Z,60.15
2023-02-27T08:01:10.785Z,58.10
2023-02-27T08:03:43.120Z,58.44
2023-02-27T08:06:34.798Z,59.56
2023-02-27T08:09:11.453Z,60.88
2023-02-27T08:12:09.514Z,61.51
2023-02-27T08:14:39.943Z,62.32
2023-02-27T08:17:16.296Z,63.62
2023-02-27T08:19:57.082Z,61.75
2023-02-27T08:22:51.767Z,59.06
2023-02-27T08:25:21.786Z,57.81
2023-02-27T08:27:51.687Z,58.61
2023-02-27T08:30:21.584Z,59.48
2023-02-27T08:32:54.088Z,60.29
2023-02-27T08:35:35.547Z,60.91
2023-02-27T08:38:07.544Z,61.96
2023-02-27T08:40:57.226Z,61.90
2023-02-27T08:43:33.382Z,62.74
2023-02-27T08:46:04.691Z,62.93
2023-02-27T08:48:35.620Z,60.54
2023-02-27T08:51:05.102Z,57.91
2023-02-27T08:53:35.592Z,57.33
2023-02-27T08:56:04.468Z,58.10
2023-02-27T08:58:36.964Z,58.09
2023-02-27T09:01:05.950Z,58.93
2023-02-27T09:03:34.466Z,59.21
2023-02-27T09:06:03.427Z,59.47
2023-02-27T09:08:32.062Z,59.51
2023-02-27T09:11:01.408Z,59.55
2023-02-27T09:13:31.635Z,59.05
2023-02-27T09:16:00.119Z,59.43
2023-02-27T09:18:29.605Z,59.63
2023-02-27T09:20:58.166Z,60.05
2023-02-27T09:23:26.665Z,59.71
2023-02-27T09:25:56.038Z,59.72
2023-02-27T09:28:24.648Z,59.80
2023-02-27T09:30:53.233Z,59.35
2023-02-27T09:33:22.615Z,60.03
2023-02-27T09:35:51.317Z,60.07
2023-02-27T09:38:20.061Z,59.97
2023-02-27T09:40:51.632Z,60.05
2023-02-27T09:43:48.105Z,59.83
2023-02-27T09:46:23.241Z,59.56
2023-02-27T09:48:59.209Z,59.35
2023-02-27T09:51:29.517Z,59.17
2023-02-27T09:54:01.918Z,58.72
2023-02-27T09:56:40.494Z,58.39
2023-02-27T09:59:44.916Z,58.24
2023-02-27T10:02:34.328Z,58.22
2023-02-27T10:05:24.216Z,58.13
2023-02-27T10:07:52.647Z,58.19
2023-02-27T10:10:40.789Z,57.46
2023-02-27T10:13:27.654Z,57.34
2023-02-27T10:15:58.335Z,57.15
2023-02-27T10:18:41.900Z,56.51
2023-02-27T10:21:20.581Z,55.63
2023-02-27T10:24:26.677Z,55.67
2023-02-27T10:27:02.963Z,55.72
2023-02-27T10:29:40.833Z,55.20
2023-02-27T10:32:22.644Z,54.95
2023-02-27T10:35:26.687Z,55.43
2023-02-27T10:38:00.993Z,55.28
2023-02-27T10:40:31.155Z,54.83
2023-02-27T10:43:04.168Z,55.10
2023-02-27T10:45:36.999Z,55.09
2023-02-27T10:48:09.391Z,55.49
2023-02-27T10:50:43.441Z,55.98
2023-02-27T10:53:24.090Z,56.37
2023-02-27T10:56:03.228Z,56.27
2023-02-27T10:58:36.151Z,55.96
2023-02-27T11:01:08.603Z,56.54
2023-02-27T11:03:41.482Z,56.26
2023-02-27T11:06:27.499Z,56.44
2023-02-27T11:09:27.275Z,56.20
2023-02-27T11:12:10.176Z,54.94
2023-02-27T11:14:51.849Z,55.26
2023-02-27T11:17:33.245Z,55.47
2023-02-27T11:20:23.703Z,55.70
2023-02-27T11:23:19.141Z,55.73
2023-02-27T11:26:22.945Z,55.70
2023-02-27T11:29:19.638Z,55.23
2023-02-27T11:31:59.601Z,55.02
2023-02-27T11:34:58.843Z,53.30
2023-02-27T11:53:43.053Z,50.22
2023-02-27T12:05:48.145Z,52.36
2023-02-27T12:16:45.880Z,53.62
2023-02-27T12:19:30.229Z,53.93
2023-02-27T12:22:04.932Z,54.35
2023-02-27T12:25:02.555Z,54.60
2023-02-27T12:28:13.381Z,55.22
2023-02-27T12:31:52.822Z,55.66
2023-02-27T12:34:30.817Z,56.71
2023-02-27T12:37:26.782Z,56.43
2023-02-27T12:40:10.660Z,55.92
2023-02-27T12:43:28.945Z,56.67
2023-02-27T12:46:17.717Z,56.73
2023-02-27T12:49:11.746Z,56.16
2023-02-27T12:51:54.664Z,55.87
2023-02-27T12:54:39.794Z,55.97
2023-02-27T12:57:08.515Z,55.55
2023-02-27T13:00:08.995Z,55.42
2023-02-27T13:02:56.579Z,54.72
2023-02-27T13:05:27.995Z,54.32
2023-02-27T13:08:17.059Z,53.76
2023-02-27T13:11:09.564Z,53.88
2023-02-27T13:13:49.108Z,54.11
2023-02-27T13:16:27.833Z,52.55
2023-02-27T13:19:25.533Z,52.49
2023-02-27T13:22:16.647Z,52.82
2023-02-27T13:24:58.973Z,52.52
2023-02-27T13:27:40.946Z,52.63
2023-02-27T13:30:23.325Z,52.73
2023-02-27T13:33:08.733Z,52.53
2023-02-27T13:36:26.753Z,52.52
2023-02-27T13:39:50.265Z,51.74
2023-02-27T14:16:20.781Z,51.46
2023-02-27T14:19:38.506Z,51.54
2023-02-27T14:23:48.242Z,52.15
2023-02-27T14:35:47.077Z,53.30
2023-02-27T14:38:36.593Z,53.57
2023-02-27T14:41:46.614Z,53.65
2023-02-27T14:45:27.951Z,53.93
2023-02-27T14:48:16.467Z,53.97
2023-02-27T14:56:10.870Z,54.11
2023-02-27T14:59:59.635Z,54.36
2023-02-27T15:04:10.391Z,54.68
2023-02-27T15:08:11.913Z,54.39
2023-02-27T15:11:31.683Z,54.28
2023-02-27T15:15:05.965Z,54.03
2023-02-27T15:18:37.670Z,53.41
2023-02-27T15:21:21.832Z,53.66
2023-02-27T15:24:57.702Z,53.31
2023-02-27T15:28:25.611Z,53.90
2023-02-27T15:31:55.655Z,54.09
2023-02-27T15:34:40.385Z,54.39
2023-02-27T15:37:31.096Z,54.53
2023-02-27T15:40:30.404Z,54.65
2023-02-27T15:43:14.254Z,54.89
2023-02-27T15:45:55.807Z,55.18
2023-02-27T15:48:38.003Z,55.32
2023-02-27T15:51:14.507Z,55.50
2023-02-27T15:54:03.883Z,55.40
2023-02-27T15:56:40.674Z,55.32
2023-02-27T15:59:31.642Z,55.53
2023-02-27T16:02:08.436Z,55.67
2023-02-27T16:04:49.531Z,55.65
2023-02-27T16:07:27.791Z,55.71
2023-02-27T16:10:29.698Z,55.98
2023-02-27T16:13:22.795Z,56.14
2023-02-27T16:16:25.143Z,56.22
2023-02-27T16:19:02.923Z,56.30
2023-02-27T16:22:07.617Z,56.01
2023-02-27T16:24:44.611Z,56.19
2023-02-27T16:27:27.404Z,56.31
2023-02-27T16:30:12.652Z,56.46
2023-02-27T16:33:04.486Z,56.55
2023-02-27T16:35:39.811Z,56.51
2023-02-27T16:38:18.901Z,56.51
2023-02-27T16:40:53.712Z,56.70
2023-02-27T16:43:27.027Z,56.89
2023-02-27T16:46:01.793Z,56.96
2023-02-27T16:48:34.138Z,56.97
2023-02-27T16:51:10.471Z,57.18
2023-02-27T16:53:57.381Z,57.35
2023-02-27T16:56:38.012Z,57.47
2023-02-27T16:59:20.575Z,57.75
2023-02-27T17:01:55.074Z,58.48
2023-02-27T17:04:29.913Z,58.70
2023-02-27T17:07:06.667Z,58.96
2023-02-27T17:09:38.284Z,58.92
2023-02-27T17:12:11.505Z,59.46
2023-02-27T17:14:41.678Z,59.92
2023-02-27T17:17:16.098Z,60.25
2023-02-27T17:19:47.812Z,60.40
2023-02-27T17:22:17.487Z,60.46
2023-02-27T17:24:49.289Z,60.81
2023-02-27T17:27:28.894Z,61.44
2023-02-27T17:30:08.532Z,61.76
2023-02-27T17:32:39.300Z,62.12
2023-02-27T17:35:12.065Z,62.53
2023-02-27T17:37:42.590Z,63.86
2023-02-27T17:40:12.636Z,62.73
2023-02-27T17:42:45.744Z,60.84
2023-02-27T17:45:17.084Z,58.73
2023-02-27T17:47:53.910Z,57.00
2023-02-27T17:50:24.780Z,57.55
2023-02-27T17:52:57.027Z,58.23
2023-02-27T17:55:26.683Z,59.05
2023-02-27T17:58:01.672Z,59.82
2023-02-27T18:00:33.523Z,60.51
2023-02-27T18:03:04.384Z,61.02
2023-02-27T18:05:34.505Z,61.59
2023-02-27T18:08:04.288Z,62.10
2023-02-27T18:10:33.242Z,62.74
2023-02-27T18:13:04.650Z,64.19
2023-02-27T18:15:35.506Z,63.04
2023-02-27T18:18:05.286Z,61.09
2023-02-27T18:20:36.002Z,59.08
2023-02-27T18:23:05.545Z,57.44
2023-02-27T18:25:35.036Z,57.94
2023-02-27T18:28:08.769Z,58.79
2023-02-27T18:30:40.209Z,59.58
2023-02-27T18:33:09.947Z,60.39
2023-02-27T18:35:39.267Z,61.31
2023-02-27T18:38:09.474Z,61.73
2023-02-27T18:40:39.313Z,62.13
2023-02-27T18:43:08.627Z,62.65
2023-02-27T18:45:39.875Z,64.42
2023-02-27T18:48:09.873Z,63.47
2023-02-27T18:50:41.104Z,61.52
2023-02-27T18:53:11.342Z,59.80
2023-02-27T18:55:41.816Z,57.68
2023-02-27T18:58:10.878Z,58.10
2023-02-27T19:00:42.890Z,59.15
2023-02-27T19:03:12.693Z,60.09
2023-02-27T19:05:49.616Z,61.05
2023-02-27T19:08:18.815Z,61.98
2023-02-27T19:10:53.912Z,62.89
2023-02-27T19:13:23.950Z,64.20
2023-02-27T19:15:54.886Z,62.31
2023-02-27T19:18:24.356Z,59.70
2023-02-27T19:20:55.312Z,57.75
2023-02-27T19:23:25.640Z,58.26
2023-02-27T19:26:01.641Z,59.11
2023-02-27T19:28:31.271Z,59.81
2023-02-27T19:31:09.839Z,60.37
2023-02-27T19:33:39.738Z,60.50
2023-02-27T19:36:15.665Z,60.96
2023-02-27T19:38:49.134Z,61.40
2023-02-27T19:41:21.039Z,62.02
2023-02-27T19:43:51.476Z,63.77
2023-02-27T19:46:28.797Z,64.83
2023-02-27T19:49:02.501Z,63.28
2023-02-27T19:51:34.151Z,61.15
2023-02-27T19:54:05.253Z,58.44
2023-02-27T19:56:38.097Z,57.13
2023-02-27T19:59:13.976Z,57.78
2023-02-27T20:01:45.053Z,58.90
2023-02-27T20:04:14.505Z,59.54
2023-02-27T20:06:46.786Z,59.83
2023-02-27T20:09:20.685Z,60.38
2023-02-27T20:11:56.578Z,61.20
2023-02-27T20:14:25.900Z,62.09
2023-02-27T20:16:57.066Z,63.67
2023-02-27T20:19:28.155Z,63.73
2023-02-27T20:21:57.838Z,61.02
2023-02-27T20:24:27.787Z,58.66
2023-02-27T20:26:59.132Z,57.96
2023-02-27T20:29:28.907Z,58.44
2023-02-27T20:31:58.473Z,59.34
2023-02-27T20:34:27.523Z,60.18
2023-02-27T20:36:58.621Z,61.06
2023-02-27T20:39:29.019Z,61.40
2023-02-27T20:42:00.970Z,62.07
2023-02-27T20:44:30.147Z,62.42
2023-02-27T20:46:58.843Z,62.41
2023-02-27T20:49:27.678Z,63.54
2023-02-27T20:51:58.952Z,63.83
2023-02-27T20:54:28.037Z,62.36
2023-02-27T20:56:58.150Z,60.42
2023-02-27T20:59:27.070Z,58.09
2023-02-27T21:01:56.055Z,57.62
2023-02-27T21:04:42.675Z,58.44
2023-02-27T21:07:21.593Z,59.60
2023-02-27T21:09:51.188Z,60.56
2023-02-27T21:12:21.342Z,61.51
2023-02-27T21:14:50.177Z,62.51
2023-02-27T21:17:19.121Z,63.84
2023-02-27T21:19:48.065Z,62.15
2023-02-27T21:22:17.448Z,60.24
2023-02-27T21:24:50.198Z,58.69
2023-02-27T21:27:21.592Z,57.93
2023-02-27T21:29:51.520Z,58.85
2023-02-27T21:32:20.182Z,59.78
2023-02-27T21:34:48.818Z,60.46
2023-02-27T21:37:18.308Z,60.94
2023-02-27T21:39:52.584Z,61.41
2023-02-27T21:42:21.280Z,62.15
2023-02-27T21:44:50.612Z,62.51
2023-02-27T21:47:21.355Z,63.89
2023-02-27T21:49:51.687Z,63.00
2023-02-27T21:52:21.644Z,61.03
2023-02-27T21:54:50.837Z,58.70
2023-02-27T21:57:22.051Z,57.58
2023-02-27T21:59:50.801Z,58.20
2023-02-27T22:02:19.633Z,59.12
2023-02-27T22:04:48.499Z,60.09
2023-02-27T22:07:18.178Z,60.77
2023-02-27T22:09:50.794Z,61.60
2023-02-27T22:12:19.458Z,63.16
2023-02-27T22:14:49.077Z,63.05
2023-02-27T22:17:18.265Z,61.29
2023-02-27T22:19:48.552Z,59.30
2023-02-27T22:22:17.334Z,57.76
2023-02-27T22:24:47.612Z,58.15
2023-02-27T22:27:17.184Z,59.04
2023-02-27T22:29:45.898Z,59.90
2023-02-27T22:32:14.760Z,60.73
2023-02-27T22:34:43.703Z,61.41
2023-02-27T22:37:14.056Z,62.08
2023-02-27T22:39:43.238Z,62.83
2023-02-27T22:42:12.162Z,64.08
2023-02-27T22:44:40.970Z,62.86
2023-02-27T22:47:10.877Z,60.91
2023-02-27T22:49:40.100Z,59.03
2023-02-27T22:52:09.187Z,57.65
2023-02-27T22:54:39.914Z,58.40
2023-02-27T22:57:09.636Z,59.52
2023-02-27T22:59:38.415Z,60.32
2023-02-27T23:02:08.215Z,60.96
2023-02-27T23:04:36.940Z,61.67
2023-02-27T23:07:06.457Z,63.08
2023-02-27T23:09:35.340Z,63.59
2023-02-27T23:12:04.692Z,61.86
2023-02-27T23:14:34.771Z,59.94
2023-02-27T23:17:03.624Z,57.93
2023-02-27T23:19:33.419Z,58.22
2023-02-27T23:22:02.310Z,59.23
2023-02-27T23:24:31.726Z,60.05
2023-02-27T23:27:05.605Z,60.98
2023-02-27T23:29:39.846Z,61.82
2023-02-27T23:32:09.757Z,62.32
2023-02-27T23:34:49.009Z,63.89
2023-02-27T23:37:19.176Z,63.74
2023-02-27T23:39:47.967Z,62.06
2023-02-27T23:42:18.440Z,60.47
2023-02-27T23:45:05.597Z,58.64
2023-02-27T23:47:44.250Z,57.80
2023-02-27T23:50:13.391Z,58.77
2023-02-27T23:52:42.534Z,59.80
2023-02-27T23:55:11.313Z,60.84
2023-02-27T23:57:40.907Z,61.62
